Time;durP1;ratioP1;P1;durP2;ratioP2;P2;SDS_P1;SDS_P2;PMS_P1;PMS_P2;Temp;Humidity;BMP_temperature;BMP_pressure;BME280_temperature;BME280_humidity;BME280_pressure;Samples;Min_cycle;Max_cycle;Signal;HPM_P1;HPM_P2
2023/11/03 00:00:37;;;;;;;0.10;0.00;;;7.50;99.90;;;;;;5000332;28;20045;-66
2023/11/03 00:03:06;;;;;;;0.00;0.00;;;7.60;99.90;;;;;;5017331;28;20412;-68
2023/11/03 00:05:32;;;;;;;0.00;0.00;;;7.60;99.90;;;;;;5003181;28;20057;-67
2023/11/03 00:07:58;;;;;;;0.00;0.00;;;7.60;99.90;;;;;;4995138;28;20141;-67
2023/11/03 00:10:24;;;;;;;0.10;0.00;;;7.60;99.90;;;;;;4994870;28;20053;-67
2023/11/03 00:12:49;;;;;;;0.00;0.00;;;7.60;99.90;;;;;;5005162;28;20053;-67
2023/11/03 00:15:15;;;;;;;0.25;0.00;;;7.60;99.90;;;;;;5004755;28;20379;-67
2023/11/03 00:17:41;;;;;;;0.05;0.05;;;7.60;99.90;;;;;;5014502;28;20478;-67
2023/11/03 00:20:07;;;;;;;2.75;0.32;;;7.70;99.90;;;;;;5012596;28;20053;-66
2023/11/03 00:22:33;;;;;;;0.00;0.00;;;7.70;99.90;;;;;;5019120;28;20038;-66
2023/11/03 00:25:00;;;;;;;0.10;0.10;;;7.70;99.90;;;;;;5020169;28;20044;-66
2023/11/03 00:27:27;;;;;;;0.00;0.00;;;7.70;99.90;;;;;;5013344;28;20179;-66
2023/11/03 00:29:52;;;;;;;5.72;1.00;;;7.70;99.90;;;;;;5014666;28;20049;-65
2023/11/03 00:32:19;;;;;;;0.32;0.32;;;7.70;99.90;;;;;;5021575;28;20033;-65
2023/11/03 00:34:46;;;;;;;0.00;0.00;;;7.70;99.90;;;;;;5016335;28;20327;-65
2023/11/03 00:37:12;;;;;;;0.00;0.00;;;7.80;99.90;;;;;;5014958;28;20073;-66
2023/11/03 00:39:40;;;;;;;0.20;0.10;;;7.80;99.90;;;;;;4998989;28;20571;-65
2023/11/03 00:42:06;;;;;;;0.00;0.00;;;7.80;99.90;;;;;;5021759;28;20473;-65
2023/11/03 00:44:34;;;;;;;0.00;0.00;;;7.80;99.90;;;;;;5022266;28;20053;-66
2023/11/03 00:46:59;;;;;;;0.20;0.08;;;7.90;99.90;;;;;;5012957;28;20129;-65
2023/11/03 00:49:25;;;;;;;1.13;0.17;;;7.90;99.90;;;;;;5017295;28;20470;-65
2023/11/03 00:51:51;;;;;;;0.10;0.10;;;7.90;99.90;;;;;;5002399;28;20049;-65
2023/11/03 00:54:16;;;;;;;0.40;0.00;;;7.90;99.90;;;;;;5019712;28;20602;-65
2023/11/03 00:56:42;;;;;;;0.28;0.20;;;7.90;99.90;;;;;;5018322;28;20037;-65
2023/11/03 00:59:08;;;;;;;0.75;0.20;;;7.90;99.90;;;;;;5015622;28;20037;-65
2023/11/03 01:01:34;;;;;;;1.65;0.20;;;8.00;99.90;;;;;;5021302;28;20437;-65
2023/11/03 01:04:00;;;;;;;2.60;0.10;;;8.00;99.90;;;;;;4971247;28;20402;-65
2023/11/03 01:06:26;;;;;;;0.00;0.00;;;8.00;99.90;;;;;;5000746;28;20034;-64
2023/11/03 01:08:52;;;;;;;0.10;0.10;;;8.00;99.90;;;;;;5022461;28;20042;-65
2023/11/03 01:11:19;;;;;;;0.22;0.20;;;8.00;99.90;;;;;;5004411;28;20477;-65
2023/11/03 01:13:45;;;;;;;0.10;0.10;;;8.00;99.90;;;;;;4997256;28;20145;-65
2023/11/03 01:16:11;;;;;;;0.10;0.10;;;8.00;99.90;;;;;;5012694;28;20117;-65
2023/11/03 01:18:41;;;;;;;0.00;0.00;;;8.00;99.90;;;;;;5015481;28;20566;-65
2023/11/03 01:21:15;;;;;;;0.20;0.10;;;8.00;99.90;;;;;;5019841;28;20107;-64
2023/11/03 01:23:41;;;;;;;0.00;0.00;;;8.00;99.90;;;;;;5003073;28;20050;-65
2023/11/03 01:26:11;;;;;;;1.13;0.20;;;8.10;99.90;;;;;;4997292;28;20050;-66
2023/11/03 01:28:37;;;;;;;0.10;0.05;;;8.10;99.90;;;;;;5016600;28;20037;-66
2023/11/03 01:31:05;;;;;;;0.75;0.10;;;8.10;99.90;;;;;;5020249;28;20080;-65
2023/11/03 01:33:31;;;;;;;0.22;0.00;;;8.10;99.90;;;;;;5007289;28;20044;-65
2023/11/03 01:35:57;;;;;;;0.25;0.20;;;8.10;99.90;;;;;;5019510;28;20033;-65
2023/11/03 01:38:24;;;;;;;0.10;0.00;;;8.10;99.90;;;;;;5017466;28;20030;-65
2023/11/03 01:40:50;;;;;;;0.95;0.10;;;8.10;99.90;;;;;;5019128;28;20513;-65
2023/11/03 01:43:15;;;;;;;0.30;0.10;;;8.10;99.90;;;;;;5013921;28;20475;-65
2023/11/03 01:45:41;;;;;;;0.57;0.10;;;8.10;99.90;;;;;;5015922;28;20077;-65
2023/11/03 01:48:08;;;;;;;0.10;0.10;;;8.10;99.90;;;;;;5017081;28;20034;-66
2023/11/03 01:50:35;;;;;;;0.00;0.00;;;8.10;99.90;;;;;;5012415;28;20050;-66
2023/11/03 01:53:02;;;;;;;0.80;0.25;;;8.10;99.90;;;;;;5012681;28;20068;-65
2023/11/03 01:55:30;;;;;;;0.20;0.13;;;8.10;99.90;;;;;;5022573;28;20040;-66
2023/11/03 01:57:57;;;;;;;0.00;0.00;;;8.10;99.90;;;;;;5021433;28;20474;-66
2023/11/03 02:00:23;;;;;;;4.28;0.10;;;8.00;99.90;;;;;;5023264;28;20051;-66
2023/11/03 02:02:53;;;;;;;0.00;0.00;;;8.00;99.90;;;;;;5023868;28;20048;-66
2023/11/03 02:05:18;;;;;;;0.00;0.00;;;8.00;99.90;;;;;;5018860;28;20393;-66
2023/11/03 02:07:46;;;;;;;0.10;0.10;;;8.00;99.90;;;;;;5001945;28;20037;-66
2023/11/03 02:10:12;;;;;;;0.00;0.00;;;8.00;99.90;;;;;;5015198;28;20075;-65
2023/11/03 02:12:38;;;;;;;0.30;0.25;;;8.00;99.90;;;;;;5012622;28;20410;-65
2023/11/03 02:15:07;;;;;;;0.05;0.00;;;8.00;99.90;;;;;;5020326;28;20407;-66
2023/11/03 02:17:34;;;;;;;0.00;0.00;;;8.00;99.90;;;;;;4999844;28;20073;-65
2023/11/03 02:20:00;;;;;;;0.10;0.10;;;8.10;99.90;;;;;;5015345;28;20041;-65
2023/11/03 02:22:26;;;;;;;0.10;0.08;;;8.10;99.90;;;;;;4999964;28;20108;-66
2023/11/03 02:24:52;;;;;;;0.00;0.00;;;8.00;99.90;;;;;;5016635;28;20557;-66
2023/11/03 02:27:19;;;;;;;2.50;0.10;;;8.10;99.90;;;;;;5020139;28;20045;-65
2023/11/03 02:29:46;;;;;;;0.43;0.00;;;8.10;99.90;;;;;;5013786;28;20124;-66
2023/11/03 02:32:12;;;;;;;0.00;0.00;;;8.10;99.90;;;;;;5012526;28;20163;-66
2023/11/03 02:34:38;;;;;;;0.38;0.10;;;8.10;99.90;;;;;;5001059;28;20077;-66
2023/11/03 02:37:03;;;;;;;0.00;0.00;;;8.10;99.90;;;;;;5004589;28;20120;-66
2023/11/03 02:39:30;;;;;;;0.03;0.00;;;8.10;99.90;;;;;;5015264;28;20303;-66
2023/11/03 02:41:56;;;;;;;0.08;0.08;;;8.10;99.90;;;;;;5013022;28;20061;-65
2023/11/03 02:44:22;;;;;;;0.32;0.15;;;8.10;99.90;;;;;;5015135;28;20038;-65
2023/11/03 02:46:48;;;;;;;0.10;0.10;;;8.20;99.90;;;;;;5021225;28;20042;-65
2023/11/03 02:49:14;;;;;;;0.03;0.03;;;8.20;99.90;;;;;;5017903;28;20045;-66
2023/11/03 02:51:39;;;;;;;0.52;0.10;;;8.20;99.90;;;;;;5000848;28;20122;-66
2023/11/03 02:54:07;;;;;;;0.30;0.20;;;8.20;99.90;;;;;;5017029;28;20109;-65
2023/11/03 02:56:33;;;;;;;2.25;0.22;;;8.20;99.90;;;;;;5019655;28;20048;-66
2023/11/03 02:58:59;;;;;;;0.10;0.10;;;8.20;99.90;;;;;;4997132;28;20107;-66
2023/11/03 03:01:28;;;;;;;0.00;0.00;;;8.20;99.90;;;;;;5009614;28;20485;-65
2023/11/03 03:03:54;;;;;;;0.28;0.20;;;8.20;99.90;;;;;;5014238;28;20044;-66
2023/11/03 03:06:19;;;;;;;1.20;0.22;;;8.30;99.90;;;;;;5015325;28;20038;-65
2023/11/03 03:08:45;;;;;;;0.00;0.00;;;8.30;99.90;;;;;;5011830;28;20395;-65
2023/11/03 03:11:11;;;;;;;0.20;0.10;;;8.30;99.90;;;;;;5016988;28;20046;-65
2023/11/03 03:13:37;;;;;;;0.45;0.10;;;8.30;99.90;;;;;;5014252;28;20058;-66
2023/11/03 03:16:03;;;;;;;1.45;0.32;;;8.30;99.90;;;;;;5017628;28;20041;-65
2023/11/03 03:18:30;;;;;;;0.70;0.30;;;8.30;99.90;;;;;;5011114;28;20033;-65
2023/11/03 03:20:55;;;;;;;0.20;0.10;;;8.30;99.90;;;;;;5011826;28;20056;-65
2023/11/03 03:23:22;;;;;;;0.00;0.00;;;8.30;99.90;;;;;;5015735;28;20029;-65
2023/11/03 03:25:48;;;;;;;0.63;0.08;;;8.40;99.90;;;;;;5017164;28;20038;-65
2023/11/03 03:28:13;;;;;;;0.00;0.00;;;8.40;99.90;;;;;;5019645;28;20080;-65
2023/11/03 03:30:39;;;;;;;0.00;0.00;;;8.40;99.90;;;;;;5013765;28;20037;-66
2023/11/03 03:33:05;;;;;;;0.10;0.10;;;8.40;99.90;;;;;;5010724;28;20042;-66
2023/11/03 03:35:31;;;;;;;0.20;0.20;;;8.40;99.90;;;;;;5012711;28;20053;-66
2023/11/03 03:37:56;;;;;;;0.13;0.10;;;8.40;99.90;;;;;;5009486;28;20041;-66
2023/11/03 03:40:22;;;;;;;0.20;0.13;;;8.40;99.90;;;;;;4997915;28;20041;-65
2023/11/03 03:42:48;;;;;;;0.03;0.03;;;8.50;99.90;;;;;;5017364;28;20042;-65
2023/11/03 03:45:15;;;;;;;0.00;0.00;;;8.50;99.90;;;;;;5020697;28;20048;-65
2023/11/03 03:47:42;;;;;;;3.05;0.10;;;8.50;99.90;;;;;;5022427;28;20397;-65
2023/11/03 03:50:08;;;;;;;0.10;0.10;;;8.50;99.90;;;;;;5016270;28;20038;-65
2023/11/03 03:52:34;;;;;;;0.05;0.03;;;8.60;99.90;;;;;;5005931;28;20120;-66
2023/11/03 03:54:59;;;;;;;0.05;0.00;;;8.50;99.90;;;;;;5017919;28;20109;-65
2023/11/03 03:57:25;;;;;;;1.95;0.45;;;8.50;99.90;;;;;;5020521;28;20482;-66
2023/11/03 03:59:51;;;;;;;0.28;0.15;;;8.50;99.90;;;;;;5020088;28;20053;-65
2023/11/03 04:02:17;;;;;;;0.00;0.00;;;8.50;99.90;;;;;;5002495;28;20084;-66
2023/11/03 04:04:45;;;;;;;0.30;0.10;;;8.60;99.90;;;;;;5001254;28;20045;-66
2023/11/03 04:07:11;;;;;;;0.00;0.00;;;8.60;99.90;;;;;;5022099;28;20579;-66
2023/11/03 04:09:41;;;;;;;0.95;0.13;;;8.60;99.90;;;;;;5017339;28;20037;-65
2023/11/03 04:12:07;;;;;;;0.00;0.00;;;8.50;99.90;;;;;;4986627;28;20058;-65
2023/11/03 04:14:33;;;;;;;0.10;0.10;;;8.60;99.90;;;;;;5002890;28;20072;-66
2023/11/03 04:16:58;;;;;;;0.10;0.10;;;8.60;99.90;;;;;;4999533;28;20073;-66
2023/11/03 04:19:24;;;;;;;0.00;0.00;;;8.60;99.90;;;;;;4982055;28;20068;-65
2023/11/03 04:21:50;;;;;;;0.15;0.15;;;8.60;99.90;;;;;;4997982;28;20034;-65
2023/11/03 04:24:15;;;;;;;0.05;0.05;;;8.60;99.90;;;;;;5004092;28;20048;-66
2023/11/03 04:26:41;;;;;;;0.45;0.13;;;8.60;99.90;;;;;;4994151;28;20065;-65
2023/11/03 04:29:07;;;;;;;2.30;0.80;;;8.60;99.90;;;;;;4996774;28;20141;-66
2023/11/03 04:31:34;;;;;;;0.17;0.10;;;8.60;99.90;;;;;;5000134;28;20100;-65
2023/11/03 04:34:00;;;;;;;0.00;0.00;;;8.60;99.90;;;;;;4998632;28;20046;-66
2023/11/03 04:36:26;;;;;;;0.60;0.10;;;8.60;99.90;;;;;;4991658;28;20038;-65
2023/11/03 04:38:52;;;;;;;0.03;0.00;;;8.60;99.90;;;;;;5001443;28;20044;-65
2023/11/03 04:41:18;;;;;;;0.32;0.17;;;8.70;99.90;;;;;;4998248;28;20049;-65
2023/11/03 04:43:44;;;;;;;0.08;0.08;;;8.60;99.90;;;;;;4995859;28;20041;-65
2023/11/03 04:46:10;;;;;;;0.00;0.00;;;8.60;99.90;;;;;;4977834;28;20126;-66
2023/11/03 04:48:39;;;;;;;0.00;0.00;;;8.60;99.90;;;;;;4985246;28;20133;-65
2023/11/03 04:51:08;;;;;;;0.00;0.00;;;8.60;99.90;;;;;;4997145;28;20076;-66
2023/11/03 04:53:33;;;;;;;0.30;0.03;;;8.60;99.90;;;;;;4998004;28;20121;-65
2023/11/03 04:55:59;;;;;;;1.88;0.20;;;8.60;99.90;;;;;;4966601;28;20130;-65
2023/11/03 04:58:25;;;;;;;0.00;0.00;;;8.60;99.90;;;;;;4997742;28;20133;-65
2023/11/03 05:00:51;;;;;;;0.10;0.10;;;8.60;99.90;;;;;;4999163;28;20045;-65
2023/11/03 05:03:19;;;;;;;0.30;0.20;;;8.60;99.90;;;;;;5001675;28;20061;-65
2023/11/03 05:05:45;;;;;;;0.03;0.00;;;8.60;99.90;;;;;;4994124;28;20477;-65
2023/11/03 05:08:11;;;;;;;0.00;0.00;;;8.60;99.90;;;;;;4999460;28;20107;-66
2023/11/03 05:10:37;;;;;;;0.08;0.08;;;8.50;99.90;;;;;;5001838;28;20039;-65
2023/11/03 05:13:04;;;;;;;0.00;0.00;;;8.60;99.90;;;;;;4997613;28;20064;-65
2023/11/03 05:15:30;;;;;;;0.10;0.10;;;8.60;99.90;;;;;;5018448;28;20366;-66
2023/11/03 05:17:58;;;;;;;0.13;0.10;;;8.60;99.90;;;;;;5002584;28;20046;-65
2023/11/03 05:20:27;;;;;;;0.00;0.00;;;8.60;99.90;;;;;;5018465;28;20120;-65
2023/11/03 05:22:53;;;;;;;0.95;0.30;;;8.60;99.90;;;;;;5023025;28;20041;-66
2023/11/03 05:25:20;;;;;;;0.73;0.28;;;8.60;99.90;;;;;;4996989;28;20061;-65
2023/11/03 05:27:46;;;;;;;1.45;0.20;;;8.70;99.90;;;;;;5020808;28;20098;-65
2023/11/03 05:30:12;;;;;;;0.80;0.20;;;8.70;99.90;;;;;;5023333;28;20485;-66
2023/11/03 05:32:38;;;;;;;0.45;0.45;;;8.70;99.90;;;;;;5013775;28;20049;-65
2023/11/03 05:35:05;;;;;;;0.57;0.17;;;8.70;99.90;;;;;;5004698;28;20082;-65
2023/11/03 05:37:31;;;;;;;1.55;0.20;;;8.70;99.90;;;;;;5020870;28;20532;-65
2023/11/03 05:39:57;;;;;;;0.15;0.10;;;8.70;99.90;;;;;;5019200;28;20053;-65
2023/11/03 05:42:23;;;;;;;0.43;0.38;;;8.70;99.90;;;;;;5014955;28;20039;-65
2023/11/03 05:44:49;;;;;;;0.00;0.00;;;8.70;99.90;;;;;;5002491;28;20553;-65
2023/11/03 05:47:14;;;;;;;0.00;0.00;;;8.70;99.90;;;;;;5018090;28;20175;-65
2023/11/03 05:49:40;;;;;;;0.10;0.10;;;8.70;99.90;;;;;;5015013;28;20475;-65
2023/11/03 05:52:06;;;;;;;0.00;0.00;;;8.70;99.90;;;;;;5015162;28;20172;-66
2023/11/03 05:54:31;;;;;;;0.10;0.10;;;8.80;99.90;;;;;;5016118;28;20033;-66
2023/11/03 05:56:57;;;;;;;1.40;0.35;;;8.70;99.90;;;;;;5018849;28;20071;-65
2023/11/03 05:59:24;;;;;;;0.25;0.17;;;8.80;99.90;;;;;;5014858;28;20030;-65
2023/11/03 06:01:51;;;;;;;0.35;0.08;;;8.80;99.90;;;;;;5013342;28;20054;-65
2023/11/03 06:04:17;;;;;;;0.05;0.00;;;8.70;99.90;;;;;;5015270;28;20054;-66
2023/11/03 06:06:43;;;;;;;0.75;0.20;;;8.70;99.90;;;;;;5018914;28;20038;-65
2023/11/03 06:09:11;;;;;;;0.17;0.10;;;8.70;99.90;;;;;;5010224;28;20030;-65
2023/11/03 06:11:37;;;;;;;0.90;0.30;;;8.70;99.90;;;;;;5009351;28;20405;-65
2023/11/03 06:14:04;;;;;;;0.10;0.03;;;8.70;99.90;;;;;;5021203;28;20046;-65
2023/11/03 06:16:30;;;;;;;1.20;0.40;;;8.70;99.90;;;;;;5016870;28;20044;-65
2023/11/03 06:18:56;;;;;;;0.20;0.00;;;8.70;99.90;;;;;;4975793;28;20045;-66
2023/11/03 06:21:22;;;;;;;0.10;0.00;;;8.70;99.90;;;;;;5014971;28;20045;-65
2023/11/03 06:23:48;;;;;;;0.17;0.05;;;8.70;99.90;;;;;;5018242;28;20104;-66
2023/11/03 06:26:13;;;;;;;0.90;0.28;;;8.70;99.90;;;;;;5007075;28;20038;-65
2023/11/03 06:28:39;;;;;;;3.50;0.10;;;8.70;99.90;;;;;;4995830;28;20041;-65
2023/11/03 06:31:05;;;;;;;0.22;0.20;;;8.70;99.90;;;;;;5005029;28;20056;-65
2023/11/03 06:33:31;;;;;;;0.77;0.10;;;8.70;99.90;;;;;;5014758;28;20044;-65
2023/11/03 06:35:59;;;;;;;0.57;0.08;;;8.70;99.90;;;;;;5010462;28;20039;-65
2023/11/03 06:38:25;;;;;;;0.03;0.00;;;8.70;99.90;;;;;;5004612;28;20042;-65
2023/11/03 06:40:51;;;;;;;0.10;0.00;;;8.70;99.90;;;;;;5010623;28;20119;-65
2023/11/03 06:43:16;;;;;;;0.05;0.00;;;8.70;99.90;;;;;;5012785;28;20037;-66
2023/11/03 06:45:42;;;;;;;0.22;0.20;;;8.70;99.90;;;;;;5004436;28;20132;-65
2023/11/03 06:48:08;;;;;;;2.05;0.13;;;8.70;99.90;;;;;;5007019;28;20034;-66
2023/11/03 06:50:34;;;;;;;0.45;0.05;;;8.70;99.90;;;;;;5001195;28;20045;-66
2023/11/03 06:52:59;;;;;;;0.00;0.00;;;8.70;99.90;;;;;;5008372;28;20073;-65
2023/11/03 06:55:25;;;;;;;0.20;0.10;;;8.70;99.90;;;;;;4989834;28;20798;-66
2023/11/03 06:57:51;;;;;;;1.55;0.25;;;8.70;99.90;;;;;;4999541;28;20394;-66
2023/11/03 07:00:18;;;;;;;0.55;0.15;;;8.70;99.90;;;;;;5008971;28;20034;-63
2023/11/03 07:02:44;;;;;;;0.65;0.10;;;8.70;99.90;;;;;;5011012;28;20064;-63
2023/11/03 07:05:09;;;;;;;0.00;0.00;;;8.70;99.90;;;;;;5009747;28;20042;-63
2023/11/03 07:07:36;;;;;;;0.00;0.00;;;8.70;99.90;;;;;;5006968;28;20036;-62
2023/11/03 07:10:02;;;;;;;0.20;0.20;;;8.70;99.90;;;;;;5023268;28;20037;-65
2023/11/03 07:12:29;;;;;;;0.10;0.10;;;8.70;99.90;;;;;;5016869;28;20111;-66
2023/11/03 07:14:55;;;;;;;0.55;0.25;;;8.70;99.90;;;;;;5019070;28;20497;-65
2023/11/03 07:17:21;;;;;;;0.52;0.40;;;8.70;99.90;;;;;;5006517;28;20045;-66
2023/11/03 07:19:47;;;;;;;0.08;0.08;;;8.70;99.90;;;;;;5010387;28;20033;-67
2023/11/03 07:22:15;;;;;;;0.57;0.10;;;8.60;99.90;;;;;;4993745;28;20029;-65
2023/11/03 07:24:41;;;;;;;0.50;0.40;;;8.60;99.90;;;;;;5011197;28;20053;-64
2023/11/03 07:27:07;;;;;;;0.32;0.17;;;8.60;99.90;;;;;;5011174;28;20410;-64
2023/11/03 07:29:34;;;;;;;0.13;0.10;;;8.60;99.90;;;;;;5019962;28;20042;-65
2023/11/03 07:32:00;;;;;;;0.20;0.15;;;8.60;99.90;;;;;;5016157;28;20121;-63
2023/11/03 07:34:25;;;;;;;0.10;0.10;;;8.60;99.90;;;;;;4994163;28;20223;-65
2023/11/03 07:36:51;;;;;;;0.30;0.10;;;8.60;99.90;;;;;;5011376;28;20486;-64
2023/11/03 07:39:17;;;;;;;0.88;0.28;;;8.60;99.90;;;;;;4998780;28;20037;-64
2023/11/03 07:41:43;;;;;;;0.52;0.52;;;8.60;99.90;;;;;;5016579;28;20114;-65
2023/11/03 07:44:10;;;;;;;0.28;0.20;;;8.70;99.90;;;;;;5004973;28;20049;-64
2023/11/03 07:46:36;;;;;;;0.17;0.10;;;8.60;99.90;;;;;;5001605;28;20077;-65
2023/11/03 07:49:03;;;;;;;1.10;0.30;;;8.60;99.90;;;;;;4996971;28;20037;-65
2023/11/03 07:51:32;;;;;;;0.93;0.30;;;8.70;99.90;;;;;;5004552;28;20462;-65
2023/11/03 07:53:58;;;;;;;4.50;0.40;;;8.70;99.90;;;;;;5002137;28;20034;-65
2023/11/03 07:56:23;;;;;;;0.73;0.65;;;8.70;99.90;;;;;;5003971;28;20095;-65
2023/11/03 07:58:49;;;;;;;0.38;0.28;;;8.70;99.90;;;;;;5009842;28;20038;-65
2023/11/03 08:01:16;;;;;;;0.98;0.45;;;8.60;99.90;;;;;;5007820;28;20053;-65
2023/11/03 08:03:43;;;;;;;0.55;0.30;;;8.70;99.90;;;;;;5016315;28;20183;-64
2023/11/03 08:06:09;;;;;;;0.20;0.20;;;8.60;99.90;;;;;;4999483;28;20504;-65
2023/11/03 08:08:36;;;;;;;1.75;0.43;;;8.60;99.90;;;;;;5013624;28;20038;-65
2023/11/03 08:11:04;;;;;;;0.52;0.35;;;8.70;99.90;;;;;;5007311;28;20038;-65
2023/11/03 08:13:30;;;;;;;0.50;0.17;;;8.70;99.90;;;;;;5006302;28;20099;-65
2023/11/03 08:15:56;;;;;;;1.63;1.05;;;8.80;99.90;;;;;;5005388;28;20065;-65
2023/11/03 08:18:23;;;;;;;0.20;0.15;;;8.80;99.90;;;;;;5018120;28;20082;-65
2023/11/03 08:20:54;;;;;;;1.65;0.10;;;8.80;99.90;;;;;;5001701;28;20038;-65
2023/11/03 08:23:20;;;;;;;2.10;0.30;;;8.80;99.90;;;;;;4988610;28;20041;-65
2023/11/03 08:25:46;;;;;;;0.68;0.35;;;8.80;99.90;;;;;;5003748;28;20045;-65
2023/11/03 08:28:12;;;;;;;0.15;0.10;;;8.80;99.90;;;;;;5014658;28;20045;-65
2023/11/03 08:30:41;;;;;;;4.40;0.30;;;8.90;99.90;;;;;;5010040;28;20038;-65
2023/11/03 08:33:07;;;;;;;0.55;0.20;;;8.90;99.90;;;;;;5007221;28;20486;-65
2023/11/03 08:35:34;;;;;;;1.27;0.45;;;8.90;99.90;;;;;;5011528;28;20040;-65
2023/11/03 08:38:00;;;;;;;1.60;0.50;;;8.90;99.90;;;;;;5010200;28;20037;-65
2023/11/03 08:40:26;;;;;;;0.82;0.22;;;9.00;99.90;;;;;;5020080;28;21146;-65
2023/11/03 08:42:53;;;;;;;0.13;0.13;;;9.10;99.90;;;;;;5007991;28;20038;-65
2023/11/03 08:45:20;;;;;;;7.22;0.73;;;9.20;99.90;;;;;;5017321;28;20042;-65
2023/11/03 08:47:46;;;;;;;0.40;0.20;;;9.30;99.90;;;;;;5016451;28;20046;-65
2023/11/03 08:50:16;;;;;;;0.20;0.17;;;9.30;99.90;;;;;;5017238;28;20080;-65
2023/11/03 08:52:47;;;;;;;3.65;0.57;;;9.40;99.90;;;;;;5016689;28;20094;-64
2023/11/03 08:55:14;;;;;;;2.15;0.25;;;9.50;99.90;;;;;;5026069;28;20076;-64
2023/11/03 08:57:41;;;;;;;0.90;0.52;;;9.60;99.90;;;;;;5021455;28;20116;-65
2023/11/03 09:00:09;;;;;;;1.75;0.70;;;9.60;99.90;;;;;;5025983;28;20131;-64
2023/11/03 09:02:40;;;;;;;1.58;0.25;;;9.60;99.90;;;;;;5006518;28;20057;-65
2023/11/03 09:05:09;;;;;;;0.50;0.25;;;9.70;99.90;;;;;;5017884;28;20378;-65
2023/11/03 09:07:35;;;;;;;0.52;0.35;;;9.70;99.90;;;;;;5019954;28;20146;-65
2023/11/03 09:10:06;;;;;;;1.85;0.20;;;9.80;99.90;;;;;;5014274;28;20042;-65
2023/11/03 09:12:35;;;;;;;3.63;0.40;;;9.80;99.90;;;;;;4987407;28;20053;-65
2023/11/03 09:15:07;;;;;;;3.72;1.20;;;9.80;99.90;;;;;;5019226;28;20044;-65
2023/11/03 09:17:33;;;;;;;2.30;0.40;;;9.80;99.90;;;;;;5021808;28;20510;-65
2023/11/03 09:20:00;;;;;;;2.28;0.65;;;9.90;99.90;;;;;;5012891;28;20143;-65
2023/11/03 09:22:27;;;;;;;2.00;0.85;;;9.90;99.90;;;;;;5013259;28;20406;-65
2023/11/03 09:25:00;;;;;;;0.17;0.10;;;10.00;99.90;;;;;;5020822;28;20100;-65
2023/11/03 09:27:27;;;;;;;1.75;0.55;;;10.20;99.90;;;;;;5020788;28;20042;-65
2023/11/03 09:29:52;;;;;;;2.55;0.57;;;10.40;99.90;;;;;;5012266;28;20120;-65
2023/11/03 09:32:18;;;;;;;2.55;0.40;;;10.60;99.90;;;;;;5016455;28;20109;-65
2023/11/03 09:34:47;;;;;;;10.88;1.00;;;10.70;99.90;;;;;;5018259;28;20041;-65
2023/11/03 09:37:16;;;;;;;0.30;0.30;;;10.70;99.90;;;;;;5017879;28;20030;-64
2023/11/03 09:39:42;;;;;;;0.98;0.40;;;10.70;99.90;;;;;;5015454;28;20042;-64
2023/11/03 09:42:11;;;;;;;1.38;0.63;;;10.70;99.90;;;;;;5013907;28;20034;-64
2023/11/03 09:44:38;;;;;;;1.42;0.60;;;10.70;99.90;;;;;;5016129;28;20041;-65
2023/11/03 09:47:05;;;;;;;2.08;0.65;;;10.70;99.90;;;;;;5018331;28;20041;-64
2023/11/03 09:49:32;;;;;;;2.67;0.55;;;10.70;99.90;;;;;;5009448;28;20033;-65
2023/11/03 09:52:02;;;;;;;3.95;0.40;;;10.70;99.90;;;;;;5013788;28;20449;-65
2023/11/03 09:54:32;;;;;;;7.72;0.77;;;10.70;99.90;;;;;;5019593;28;20084;-64
2023/11/03 09:57:08;;;;;;;0.32;0.20;;;10.70;99.90;;;;;;5019814;28;20032;-64
2023/11/03 09:59:35;;;;;;;1.25;0.30;;;10.80;99.90;;;;;;5010891;28;20034;-64
2023/11/03 10:02:11;;;;;;;1.48;0.30;;;10.90;99.90;;;;;;5019285;28;20034;-65
2023/11/03 10:04:38;;;;;;;1.95;0.57;;;10.90;99.90;;;;;;5016085;28;20054;-65
2023/11/03 10:07:10;;;;;;;2.08;0.85;;;10.90;99.90;;;;;;5023052;28;20460;-65
2023/11/03 10:09:36;;;;;;;3.78;0.35;;;10.90;99.90;;;;;;5016995;28;20189;-64
2023/11/03 10:12:03;;;;;;;2.95;0.40;;;10.80;99.90;;;;;;5015671;28;20124;-65
2023/11/03 10:14:30;;;;;;;0.55;0.35;;;10.90;99.90;;;;;;5018507;28;20046;-65
2023/11/03 10:16:58;;;;;;;3.10;0.85;;;11.10;99.90;;;;;;5003733;28;20065;-65
2023/11/03 10:19:25;;;;;;;2.20;0.45;;;11.50;99.90;;;;;;5014089;28;20075;-65
2023/11/03 10:21:51;;;;;;;1.38;0.30;;;11.60;99.90;;;;;;5021112;28;20501;-65
2023/11/03 10:24:17;;;;;;;1.42;0.32;;;11.80;99.90;;;;;;5011792;28;20481;-65
2023/11/03 10:26:43;;;;;;;1.27;0.50;;;11.80;99.90;;;;;;5005221;28;20383;-66
2023/11/03 10:29:12;;;;;;;0.57;0.20;;;11.70;99.90;;;;;;5008641;28;20091;-66
2023/11/03 10:31:39;;;;;;;0.20;0.20;;;11.60;99.90;;;;;;5013106;28;20086;-66
2023/11/03 10:34:05;;;;;;;4.82;0.60;;;11.60;99.90;;;;;;5015667;28;20026;-66
2023/11/03 10:36:32;;;;;;;0.28;0.28;;;11.60;99.90;;;;;;5010063;28;20041;-67
2023/11/03 10:38:57;;;;;;;2.13;0.88;;;11.90;99.90;;;;;;5012506;28;20065;-66
2023/11/03 10:41:25;;;;;;;0.20;0.20;;;12.00;99.90;;;;;;5018505;28;20069;-66
2023/11/03 10:43:57;;;;;;;0.45;0.30;;;11.90;99.90;;;;;;5019057;28;20053;-66
2023/11/03 10:46:39;;;;;;;0.40;0.35;;;11.90;99.90;;;;;;5012428;28;20048;-66
2023/11/03 10:49:21;;;;;;;0.30;0.17;;;11.90;99.90;;;;;;5024545;28;20041;-67
2023/11/03 10:52:03;;;;;;;3.10;0.57;;;11.90;99.90;;;;;;5018611;28;20045;-66
2023/11/03 10:54:56;;;;;;;1.48;0.32;;;11.80;99.90;;;;;;5009896;28;20565;-67
2023/11/03 10:57:22;;;;;;;0.93;0.73;;;11.70;99.90;;;;;;4990397;28;20037;-67
2023/11/03 10:59:59;;;;;;;5.50;0.52;;;11.50;99.90;;;;;;5012727;28;20568;-67
2023/11/03 11:02:35;;;;;;;3.88;1.27;;;11.40;99.90;;;;;;5016825;28;20129;-66
2023/11/03 11:05:24;;;;;;;2.42;0.60;;;11.40;99.90;;;;;;5012225;28;20345;-66
2023/11/03 11:07:55;;;;;;;1.35;0.55;;;11.40;99.90;;;;;;5014235;28;20112;-66
2023/11/03 11:10:41;;;;;;;0.43;0.20;;;11.40;99.90;;;;;;5019839;28;20046;-66
2023/11/03 11:13:18;;;;;;;1.15;0.20;;;11.30;99.90;;;;;;5024953;28;20089;-66
2023/11/03 11:15:56;;;;;;;10.02;4.07;;;11.30;99.90;;;;;;4993843;28;20049;-66
2023/11/03 11:18:23;;;;;;;1.25;0.25;;;11.20;99.90;;;;;;5014289;28;20059;-66
2023/11/03 11:20:53;;;;;;;0.30;0.22;;;11.20;99.90;;;;;;5018796;28;20367;-66
2023/11/03 11:23:22;;;;;;;0.35;0.20;;;11.20;99.90;;;;;;5023967;28;20049;-67
2023/11/03 11:25:52;;;;;;;4.05;0.68;;;11.10;99.90;;;;;;4992638;28;20049;-66
2023/11/03 11:28:40;;;;;;;0.22;0.13;;;11.10;99.90;;;;;;5013433;28;20037;-66
2023/11/03 11:31:24;;;;;;;0.17;0.00;;;11.10;99.90;;;;;;5003492;28;20057;-67
2023/11/03 11:34:07;;;;;;;8.53;0.67;;;11.10;99.90;;;;;;5014620;28;20505;-67
2023/11/03 11:36:35;;;;;;;0.25;0.17;;;11.20;99.90;;;;;;5012398;28;20319;-67
2023/11/03 11:39:06;;;;;;;4.45;0.30;;;11.10;99.90;;;;;;5019162;28;20037;-66
2023/11/03 11:41:34;;;;;;;5.68;0.52;;;11.20;99.90;;;;;;5021648;28;20096;-67
2023/11/03 11:44:02;;;;;;;15.02;0.93;;;11.20;99.90;;;;;;5012983;28;20034;-67
2023/11/03 11:46:31;;;;;;;2.92;0.20;;;11.20;99.90;;;;;;5014045;28;20034;-66
2023/11/03 11:49:02;;;;;;;1.05;0.35;;;11.20;99.90;;;;;;5018418;28;20455;-67
2023/11/03 11:51:28;;;;;;;0.35;0.05;;;11.10;99.90;;;;;;5015791;28;20461;-66
2023/11/03 11:54:01;;;;;;;0.63;0.10;;;11.10;99.90;;;;;;5026049;28;20077;-67
2023/11/03 11:56:28;;;;;;;0.15;0.00;;;11.20;99.90;;;;;;5015778;28;20033;-66
2023/11/03 11:58:58;;;;;;;1.70;0.35;;;11.20;99.90;;;;;;5020934;28;20083;-66
2023/11/03 12:01:24;;;;;;;0.50;0.20;;;11.20;99.90;;;;;;5015342;28;20038;-66
2023/11/03 12:03:52;;;;;;;0.10;0.10;;;11.20;99.90;;;;;;5010513;28;20103;-66
2023/11/03 12:06:19;;;;;;;2.08;0.85;;;11.30;99.90;;;;;;4996738;28;20258;-65
2023/11/03 12:08:45;;;;;;;0.98;0.00;;;11.20;99.90;;;;;;5001737;28;20046;-65
2023/11/03 12:11:11;;;;;;;1.95;0.25;;;11.20;99.90;;;;;;5014488;28;20517;-66
2023/11/03 12:13:37;;;;;;;2.88;0.40;;;11.20;99.90;;;;;;5015615;28;20038;-66
2023/11/03 12:16:03;;;;;;;1.80;0.20;;;11.20;99.90;;;;;;5003142;28;20394;-67
2023/11/03 12:18:35;;;;;;;1.98;0.30;;;11.20;99.90;;;;;;5019980;28;20482;-66
2023/11/03 12:21:04;;;;;;;3.13;0.40;;;11.20;99.90;;;;;;4996907;28;20049;-67
2023/11/03 12:23:31;;;;;;;0.10;0.10;;;11.20;99.90;;;;;;4992772;28;20397;-67
2023/11/03 12:25:58;;;;;;;2.50;0.38;;;11.20;99.90;;;;;;5020088;28;20465;-66
2023/11/03 12:29:01;;;;;;;2.47;0.25;;;11.20;99.90;;;;;;5021498;28;20552;-66
2023/11/03 12:31:27;;;;;;;1.27;0.22;;;11.40;99.90;;;;;;5008825;28;20494;-66
2023/11/03 12:33:59;;;;;;;2.53;0.43;;;11.50;99.90;;;;;;5019713;28;20066;-67
2023/11/03 12:36:27;;;;;;;5.28;1.02;;;11.50;99.90;;;;;;5018381;28;20433;-67
2023/11/03 12:38:52;;;;;;;3.53;0.47;;;11.50;99.90;;;;;;5015840;28;20033;-66
2023/11/03 12:41:19;;;;;;;1.27;0.22;;;11.50;99.90;;;;;;5015219;28;20046;-66
2023/11/03 12:43:54;;;;;;;6.10;0.85;;;11.60;99.90;;;;;;5010209;28;20309;-67
2023/11/03 12:46:19;;;;;;;0.17;0.00;;;11.60;99.90;;;;;;5009145;28;20104;-67
2023/11/03 12:48:49;;;;;;;0.75;0.25;;;11.70;99.90;;;;;;5011509;28;20037;-67
2023/11/03 12:51:15;;;;;;;3.00;0.15;;;11.70;99.90;;;;;;5006826;28;20034;-66
2023/11/03 12:53:48;;;;;;;1.92;0.17;;;11.60;99.90;;;;;;5023447;28;20160;-66
2023/11/03 12:56:16;;;;;;;0.50;0.20;;;11.60;99.90;;;;;;5022322;28;20137;-66